Time;durP1;ratioP1;P1;durP2;ratioP2;P2;SDS_P1;SDS_P2;PMS_P1;PMS_P2;Temp;Humidity;BMP_temperature;BMP_pressure;BME280_temperature;BME280_humidity;BME280_pressure;Samples;Min_cycle;Max_cycle;Signal;HPM_P1;HPM_P2
2022/04/13 00:00:14;;;;;;;7.72;3.00;;;;;;;4.48;60.62;148787.75;1636780;86;21224;-62
2022/04/13 00:02:41;;;;;;;7.67;2.60;;;;;;;4.44;60.75;148778.69;1679005;85;21469;-62
2022/04/13 00:05:09;;;;;;;7.92;2.87;;;;;;;4.44;60.96;148778.69;1661926;85;21533;-63
2022/04/13 00:07:37;;;;;;;7.03;2.87;;;;;;;4.41;61.19;148770.94;1661921;84;21046;-62
2022/04/13 00:10:07;;;;;;;7.03;2.90;;;;;;;4.41;61.19;148770.94;1661338;85;21190;-62
2022/04/13 00:12:36;;;;;;;10.75;3.15;;;;;;;4.42;61.12;148773.53;1666409;85;21007;-62
2022/04/13 00:15:06;;;;;;;6.45;3.10;;;;;;;4.42;61.12;148773.53;1679055;85;21608;-63
2022/04/13 00:17:38;;;;;;;11.22;2.90;;;;;;;4.40;61.37;148769.63;1679407;84;21492;-63
2022/04/13 00:20:07;;;;;;;7.53;2.77;;;;;;;4.40;61.43;148768.38;1678852;84;21130;-63
2022/04/13 00:22:36;;;;;;;6.15;2.90;;;;;;;4.36;61.54;148759.31;1679774;84;21072;-62
2022/04/13 00:25:04;;;;;;;5.58;2.55;;;;;;;4.36;61.38;148759.31;1678928;84;21232;-63
2022/04/13 00:27:31;;;;;;;9.10;3.50;;;;;;;4.32;61.92;148747.72;1678701;84;21111;-63
2022/04/13 00:29:58;;;;;;;5.47;2.60;;;;;;;4.26;62.10;148734.77;1678644;84;22358;-63
2022/04/13 00:32:25;;;;;;;6.87;2.65;;;;;;;4.24;62.41;148729.61;1678873;84;21536;-67
2022/04/13 00:34:58;;;;;;;8.15;3.02;;;;;;;4.20;62.54;148719.28;1679104;84;21141;-67
2022/04/13 00:37:23;;;;;;;11.10;3.17;;;;;;;4.17;62.83;148711.53;1720565;83;21925;-67
2022/04/13 00:39:50;;;;;;;7.45;2.60;;;;;;;4.13;62.93;148702.48;1679363;84;21036;-67
2022/04/13 00:42:17;;;;;;;8.98;3.40;;;;;;;4.09;63.16;148690.84;1678653;84;21004;-68
2022/04/13 00:44:44;;;;;;;8.80;3.00;;;;;;;4.09;63.13;148690.84;1687909;84;21066;-68
2022/04/13 00:47:13;;;;;;;6.90;2.83;;;;;;;4.07;63.25;148685.69;1679993;84;21035;-68
2022/04/13 00:49:42;;;;;;;7.15;3.05;;;;;;;4.01;63.65;148672.78;1679313;84;21091;-69
2022/04/13 00:52:10;;;;;;;11.15;3.08;;;;;;;4.01;63.65;148672.78;1679547;84;21520;-69
2022/04/13 00:54:38;;;;;;;7.37;3.17;;;;;;;3.98;63.63;148665.05;1679152;84;21054;-69
2022/04/13 00:57:09;;;;;;;6.87;2.83;;;;;;;3.99;63.90;148667.63;1679781;85;21055;-69
2022/04/13 00:59:38;;;;;;;9.55;3.70;;;;;;;3.96;64.03;148659.89;1679933;85;21382;-69
2022/04/13 01:02:08;;;;;;;7.03;3.00;;;;;;;3.93;64.11;148652.16;1679841;85;21307;-70
2022/04/13 01:04:37;;;;;;;8.90;3.37;;;;;;;3.93;64.11;148652.16;1679656;85;20991;-68
2022/04/13 01:07:09;;;;;;;8.65;3.50;;;;;;;3.92;64.37;148648.25;1679811;85;21062;-70
2022/04/13 01:09:37;;;;;;;10.32;3.42;;;;;;;3.90;64.64;148644.41;1679444;84;21123;-69
2022/04/13 01:12:07;;;;;;;7.35;3.08;;;;;;;3.87;65.13;148636.67;1652034;84;21008;-69
2022/04/13 01:14:36;;;;;;;6.33;3.15;;;;;;;3.87;65.13;148636.67;1673026;84;21330;-69
2022/04/13 01:17:04;;;;;;;7.55;3.12;;;;;;;3.88;65.01;148639.25;1650399;84;21143;-69
2022/04/13 01:19:32;;;;;;;7.67;3.30;;;;;;;3.88;65.11;148639.25;1667921;84;21944;-69
2022/04/13 01:22:18;;;;;;;7.00;3.00;;;;;;;3.85;65.33;148631.45;1675851;84;21086;-70
2022/04/13 01:24:46;;;;;;;8.50;2.95;;;;;;;3.85;65.38;148631.45;1675052;84;21105;-69
2022/04/13 01:27:16;;;;;;;6.97;3.40;;;;;;;3.85;65.42;148631.45;1670697;83;21222;-69
2022/04/13 01:29:44;;;;;;;6.60;3.25;;;;;;;3.83;65.46;148627.61;1666595;84;21035;-69
2022/04/13 01:32:11;;;;;;;8.38;4.25;;;;;;;3.83;65.69;148626.30;1674321;84;21068;-69
2022/04/13 01:34:52;;;;;;;10.43;3.25;;;;;;;3.83;65.67;148627.61;1666275;85;20992;-69
2022/04/13 01:37:20;;;;;;;9.43;3.20;;;;;;;3.83;65.74;148626.30;1670960;84;21050;-68
2022/04/13 01:39:48;;;;;;;9.38;3.40;;;;;;;3.83;66.00;148626.30;1669509;84;21059;-68
2022/04/13 01:42:16;;;;;;;7.30;3.17;;;;;;;3.83;65.68;148626.30;1666836;85;21016;-69
2022/04/13 01:44:45;;;;;;;5.37;2.90;;;;;;;3.83;65.68;148626.30;1670261;84;21067;-68
2022/04/13 01:47:14;;;;;;;10.63;3.37;;;;;;;3.83;65.94;148626.30;1667175;85;21730;-68
2022/04/13 01:49:43;;;;;;;6.80;2.92;;;;;;;3.82;66.04;148625.03;1666698;84;21087;-69
2022/04/13 01:52:11;;;;;;;8.78;3.15;;;;;;;3.82;66.18;148623.72;1674654;83;21664;-68
2022/04/13 01:54:38;;;;;;;8.90;3.77;;;;;;;3.82;66.18;148623.72;1674552;83;21063;-69
2022/04/13 01:57:05;;;;;;;8.45;3.45;;;;;;;3.81;66.16;148621.14;1666871;84;22207;-69
2022/04/13 01:59:34;;;;;;;7.05;3.25;;;;;;;3.81;66.19;148621.14;1677993;84;21051;-69
2022/04/13 02:02:04;;;;;;;8.20;3.33;;;;;;;3.82;66.34;148623.72;1670878;84;21352;-69
2022/04/13 02:04:54;;;;;;;7.50;3.25;;;;;;;3.78;66.35;148613.41;1668924;84;20957;-70
2022/04/13 02:07:22;;;;;;;5.95;2.90;;;;;;;3.80;66.37;148619.88;1639598;87;21127;-68
2022/04/13 02:09:51;;;;;;;6.20;3.10;;;;;;;3.81;66.47;148621.14;1609611;87;21105;-69
2022/04/13 02:12:18;;;;;;;11.10;3.50;;;;;;;3.81;66.49;148621.14;1639680;87;21052;-68
2022/04/13 02:14:45;;;;;;;6.28;3.20;;;;;;;3.81;66.45;148621.14;1608741;87;21165;-69
2022/04/13 02:17:16;;;;;;;9.68;3.30;;;;;;;3.80;66.64;148618.56;1613120;88;21466;-69
2022/04/13 02:19:44;;;;;;;6.22;3.30;;;;;;;3.81;66.77;148621.14;1638721;86;21147;-69
2022/04/13 02:22:11;;;;;;;8.10;3.30;;;;;;;3.79;66.61;148615.98;1609351;89;21101;-68
2022/04/13 02:24:40;;;;;;;8.30;3.30;;;;;;;3.79;66.65;148615.98;1612745;87;21104;-68
2022/04/13 02:27:07;;;;;;;8.95;3.42;;;;;;;3.79;66.62;148615.98;1638335;87;21554;-70
2022/04/13 02:29:37;;;;;;;6.08;3.12;;;;;;;3.78;66.66;148614.72;1638391;86;21965;-70
2022/04/13 02:32:05;;;;;;;7.58;3.25;;;;;;;3.78;66.66;148614.72;1638162;87;21469;-69
2022/04/13 02:34:34;;;;;;;9.15;3.10;;;;;;;3.79;66.65;148615.98;1609070;87;21501;-68
2022/04/13 02:37:01;;;;;;;9.58;3.10;;;;;;;3.79;66.65;148615.98;1638980;86;21549;-69
2022/04/13 02:39:28;;;;;;;7.55;3.20;;;;;;;3.82;66.75;148625.03;1609031;89;20964;-69
2022/04/13 02:41:56;;;;;;;7.72;3.35;;;;;;;3.83;66.74;148626.30;1613004;87;21605;-69
2022/04/13 02:44:23;;;;;;;8.38;2.98;;;;;;;3.84;66.78;148628.88;1638549;87;20917;-69
2022/04/13 02:46:52;;;;;;;8.03;3.00;;;;;;;3.88;67.02;148639.25;1638304;86;21132;-68
2022/04/13 02:49:20;;;;;;;7.92;3.47;;;;;;;3.88;67.02;148639.25;1638955;87;21000;-68
2022/04/13 02:51:47;;;;;;;9.43;3.27;;;;;;;3.92;66.69;148649.56;1606351;87;21113;-69
2022/04/13 02:54:14;;;;;;;9.08;3.42;;;;;;;3.92;66.69;148649.56;1639787;87;21678;-69
2022/04/13 02:56:41;;;;;;;7.42;2.95;;;;;;;3.92;66.81;148649.56;1610092;87;21085;-69
2022/04/13 02:59:09;;;;;;;9.60;3.22;;;;;;;3.93;66.84;148650.83;1639606;87;21131;-69
2022/04/13 03:01:36;;;;;;;6.05;3.08;;;;;;;3.93;66.87;148652.16;1610636;89;21096;-69
2022/04/13 03:04:04;;;;;;;9.75;3.67;;;;;;;3.91;66.89;148646.98;1640111;87;21099;-68
2022/04/13 03:06:32;;;;;;;6.60;2.85;;;;;;;3.94;66.85;148654.73;1614739;87;21209;-68
2022/04/13 03:08:59;;;;;;;11.20;3.25;;;;;;;3.95;66.87;148656.00;1644551;85;21377;-68
2022/04/13 03:11:28;;;;;;;7.75;2.95;;;;;;;3.95;66.83;148656.00;1617399;88;21129;-68
2022/04/13 03:13:56;;;;;;;8.38;3.17;;;;;;;3.95;66.83;148656.00;1644342;87;21597;-67
2022/04/13 03:16:25;;;;;;;8.88;3.47;;;;;;;3.97;66.94;148662.47;1617171;87;21081;-69
2022/04/13 03:18:52;;;;;;;7.90;3.50;;;;;;;3.97;66.87;148662.47;1644585;85;21209;-70
2022/04/13 03:21:21;;;;;;;9.73;3.10;;;;;;;3.99;66.90;148667.63;1617437;88;20993;-69
2022/04/13 03:23:48;;;;;;;8.70;3.27;;;;;;;3.99;66.88;148667.63;1644229;85;21138;-69
2022/04/13 03:26:16;;;;;;;8.00;3.45;;;;;;;3.98;66.90;148665.05;1617453;87;21484;-69
2022/04/13 03:28:43;;;;;;;5.47;3.12;;;;;;;3.97;66.90;148662.47;1644233;87;21556;-69
2022/04/13 03:31:11;;;;;;;7.35;3.30;;;;;;;3.96;66.98;148658.58;1616925;87;21509;-65
2022/04/13 03:33:39;;;;;;;10.38;3.27;;;;;;;3.98;67.17;148663.78;1642638;85;21071;-63
2022/04/13 03:36:07;;;;;;;7.00;3.22;;;;;;;3.98;67.17;148663.78;1616089;87;21638;-63
2022/04/13 03:38:35;;;;;;;10.38;3.95;;;;;;;3.97;67.03;148662.47;1642944;85;21108;-69
2022/04/13 03:41:04;;;;;;;6.60;3.05;;;;;;;3.97;67.09;148662.47;1615827;87;21682;-64
2022/04/13 03:43:31;;;;;;;8.65;3.47;;;;;;;3.99;67.10;148667.63;1643812;85;21012;-64
2022/04/13 03:45:59;;;;;;;9.98;3.20;;;;;;;4.01;67.09;148672.78;1643277;85;21059;-64
2022/04/13 03:48:26;;;;;;;7.85;2.92;;;;;;;4.05;67.08;148680.53;1617141;88;21098;-64
2022/04/13 03:50:55;;;;;;;9.38;3.37;;;;;;;4.06;67.00;148683.11;1642746;85;21114;-64
2022/04/13 03:53:22;;;;;;;6.65;3.00;;;;;;;4.09;66.96;148690.84;1643289;87;21711;-63
2022/04/13 03:55:49;;;;;;;8.10;3.42;;;;;;;4.12;66.91;148699.91;1615496;87;21184;-64
2022/04/13 03:58:17;;;;;;;6.92;3.20;;;;;;;4.15;66.80;148707.66;1643566;85;21031;-64
2022/04/13 04:00:44;;;;;;;14.33;2.95;;;;;;;4.18;66.70;148714.13;1617217;87;21133;-69
2022/04/13 04:03:12;;;;;;;9.10;3.47;;;;;;;4.27;66.76;148737.34;1645110;85;21146;-68
2022/04/13 04:05:39;;;;;;;7.95;3.47;;;;;;;4.27;66.76;148737.34;1617048;87;21129;-64
2022/04/13 04:08:07;;;;;;;6.30;2.77;;;;;;;4.33;66.54;148751.56;1646310;85;21178;-64
2022/04/13 04:10:36;;;;;;;7.67;3.17;;;;;;;4.37;66.28;148760.62;1616915;87;21128;-69
2022/04/13 04:13:03;;;;;;;7.65;3.00;;;;;;;4.39;66.31;148765.78;1644469;85;21075;-70
2022/04/13 04:15:30;;;;;;;8.20;3.47;;;;;;;4.51;66.14;148796.75;1616881;87;21066;-64
2022/04/13 04:17:59;;;;;;;7.35;2.92;;;;;;;4.57;65.96;148810.97;1643896;85;21116;-69
2022/04/13 04:20:26;;;;;;;9.23;3.10;;;;;;;4.66;65.87;148832.94;1617323;87;21243;-69
2022/04/13 04:22:55;;;;;;;6.35;3.17;;;;;;;4.76;65.63;148857.50;1643703;87;21134;-68
2022/04/13 04:25:23;;;;;;;7.42;3.55;;;;;;;4.86;65.30;148884.63;1643402;87;21071;-70
2022/04/13 04:27:50;;;;;;;9.43;3.50;;;;;;;4.95;65.11;148906.59;1616184;87;21129;-68
2022/04/13 04:30:20;;;;;;;9.03;3.20;;;;;;;5.07;64.85;148936.31;1644932;85;20913;-68
2022/04/13 04:32:48;;;;;;;7.85;3.45;;;;;;;5.22;64.51;148972.52;1616654;88;21269;-68
2022/04/13 04:35:15;;;;;;;8.08;3.40;;;;;;;5.52;63.59;149047.47;1643825;87;21068;-69
2022/04/13 04:37:42;;;;;;;8.93;2.90;;;;;;;5.52;63.59;149047.47;1643208;86;21059;-68
2022/04/13 04:40:11;;;;;;;6.92;2.83;;;;;;;5.64;63.36;149078.52;1643974;87;21075;-69
2022/04/13 04:42:48;;;;;;;7.17;3.20;;;;;;;5.79;62.88;149114.69;1616469;87;21139;-69
2022/04/13 04:45:19;;;;;;;6.80;3.35;;;;;;;5.92;62.45;149148.33;1643557;87;22070;-68
2022/04/13 04:47:49;;;;;;;7.85;3.17;;;;;;;6.05;61.55;149179.39;1616138;87;22399;-69
2022/04/13 04:50:18;;;;;;;7.10;3.17;;;;;;;6.13;61.31;149200.11;1645469;85;21547;-70
2022/04/13 04:52:46;;;;;;;5.60;3.02;;;;;;;6.25;61.14;149231.13;1644882;87;21053;-70
2022/04/13 04:55:14;;;;;;;8.75;3.22;;;;;;;6.41;60.85;149269.94;1618452;87;21769;-68
2022/04/13 04:57:41;;;;;;;7.55;3.00;;;;;;;6.57;60.41;149311.34;1644836;87;21464;-64
2022/04/13 05:00:12;;;;;;;6.92;3.17;;;;;;;6.74;59.80;149352.72;1616542;87;21141;-64
2022/04/13 05:02:39;;;;;;;6.28;2.80;;;;;;;6.88;59.10;149387.70;1643921;85;21056;-64
2022/04/13 05:05:08;;;;;;;8.75;3.12;;;;;;;7.01;58.86;149420.05;1616680;87;21216;-64
2022/04/13 05:07:35;;;;;;;8.75;3.20;;;;;;;7.16;58.18;149457.58;1640270;85;21103;-64
2022/04/13 05:10:05;;;;;;;6.03;2.65;;;;;;;7.24;57.49;149477.00;1609185;87;21138;-65
2022/04/13 05:12:52;;;;;;;10.30;2.95;;;;;;;7.30;57.40;149492.53;1613398;87;20973;-64
2022/04/13 05:15:20;;;;;;;9.38;3.10;;;;;;;7.40;57.05;149518.39;1640481;86;21463;-64
2022/04/13 05:17:47;;;;;;;7.97;3.00;;;;;;;7.51;56.50;149544.31;1610568;87;21002;-64
2022/04/13 05:20:16;;;;;;;5.55;2.72;;;;;;;7.61;56.24;149570.19;1640452;86;21028;-65
2022/04/13 05:22:44;;;;;;;6.40;3.05;;;;;;;7.67;55.52;149585.75;1610580;87;21268;-64
2022/04/13 05:25:14;;;;;;;8.78;3.17;;;;;;;7.70;55.50;149592.20;1640218;87;21044;-65
2022/04/13 05:27:44;;;;;;;9.55;3.10;;;;;;;7.78;55.28;149611.62;1609297;87;21575;-64
2022/04/13 05:30:14;;;;;;;11.33;3.10;;;;;;;7.87;54.65;149634.97;1613561;87;21120;-66
2022/04/13 05:32:58;;;;;;;6.85;2.90;;;;;;;7.89;54.59;149640.14;1610707;89;21137;-64
2022/04/13 05:35:26;;;;;;;9.68;2.83;;;;;;;8.07;54.00;149684.14;1639604;87;21279;-65
2022/04/13 05:37:55;;;;;;;5.97;2.77;;;;;;;8.42;53.30;149772.25;1638184;86;21084;-64
2022/04/13 05:40:23;;;;;;;6.45;2.65;;;;;;;8.94;52.86;149901.87;1639171;87;21024;-64
2022/04/13 05:42:53;;;;;;;13.45;3.10;;;;;;;9.59;51.36;150065.22;1590803;89;21113;-64
2022/04/13 05:45:20;;;;;;;7.15;2.75;;;;;;;10.13;49.54;150200.13;1639372;86;21439;-64
2022/04/13 05:47:48;;;;;;;7.45;3.00;;;;;;;10.29;48.37;150241.66;1609517;87;21112;-64
2022/04/13 05:50:15;;;;;;;12.20;3.35;;;;;;;10.31;47.89;150245.53;1640075;86;21032;-64
2022/04/13 05:52:44;;;;;;;13.13;2.98;;;;;;;10.19;48.20;150215.69;1609500;89;21110;-64
2022/04/13 05:55:11;;;;;;;8.95;2.72;;;;;;;10.10;48.23;150192.36;1613879;87;21094;-64
2022/04/13 05:57:40;;;;;;;6.15;2.42;;;;;;;9.85;48.33;150130.11;1638376;87;21763;-63
2022/04/13 06:00:13;;;;;;;5.62;2.60;;;;;;;9.57;49.08;150060.03;1609093;87;21572;-64
2022/04/13 06:02:42;;;;;;;8.25;2.52;;;;;;;9.38;49.56;150012.08;1613157;87;29459;-64
2022/04/13 06:05:09;;;;;;;7.67;2.75;;;;;;;9.27;50.15;149984.86;1638526;86;21657;-65
2022/04/13 06:07:37;;;;;;;8.38;2.80;;;;;;;9.26;50.42;149982.27;1638944;86;21458;-65
2022/04/13 06:10:06;;;;;;;4.78;2.70;;;;;;;9.26;50.55;149983.53;1609282;87;21132;-65
2022/04/13 06:12:35;;;;;;;6.15;2.80;;;;;;;9.24;50.74;149978.36;1613232;88;21688;-65
2022/04/13 06:15:09;;;;;;;8.23;3.12;;;;;;;9.24;50.81;149977.08;1638685;86;21692;-64
2022/04/13 06:17:37;;;;;;;8.45;2.37;;;;;;;9.28;50.65;149988.77;1638469;87;21230;-64
2022/04/13 06:20:07;;;;;;;5.35;2.70;;;;;;;9.38;50.54;150012.08;1609335;87;21080;-64
2022/04/13 06:22:41;;;;;;;8.93;2.20;;;;;;;9.41;50.47;150019.84;1613465;87;21055;-64
2022/04/13 06:25:10;;;;;;;5.45;2.05;;;;;;;9.48;50.58;150038.00;1638698;86;21246;-64
2022/04/13 06:27:40;;;;;;;5.15;2.20;;;;;;;9.57;50.36;150060.03;1609853;89;22194;-63
2022/04/13 06:30:09;;;;;;;7.15;2.60;;;;;;;9.55;50.00;150054.86;1640026;86;21124;-63
2022/04/13 06:32:39;;;;;;;7.92;2.62;;;;;;;9.48;50.29;150036.72;1610858;87;21149;-64
2022/04/13 06:35:09;;;;;;;10.60;3.50;;;;;;;9.48;50.46;150036.72;1640398;87;21549;-64
2022/04/13 06:37:36;;;;;;;4.95;2.20;;;;;;;9.46;50.19;150034.13;1611106;87;22288;-64
2022/04/13 06:40:05;;;;;;;7.00;2.75;;;;;;;9.53;50.71;150051.00;1639824;86;21115;-64
2022/04/13 06:42:37;;;;;;;6.03;2.60;;;;;;;9.72;49.82;150098.95;1610287;87;20964;-64
2022/04/13 06:45:07;;;;;;;5.58;2.40;;;;;;;9.78;49.76;150113.23;1613676;87;21146;-64
2022/04/13 06:47:34;;;;;;;6.55;2.33;;;;;;;9.83;49.66;150124.87;1609644;87;21144;-65
2022/04/13 06:50:03;;;;;;;10.63;2.30;;;;;;;9.91;49.51;150145.66;1639112;87;21242;-65
2022/04/13 06:52:35;;;;;;;6.45;2.08;;;;;;;10.06;48.70;150181.94;1609534;87;21024;-64
2022/04/13 06:55:03;;;;;;;5.65;2.50;;;;;;;10.13;48.43;150200.13;1613779;88;21087;-65
2022/04/13 06:57:35;;;;;;;11.12;2.65;;;;;;;10.16;48.23;150209.19;1639100;86;21056;-65
2022/04/13 07:00:02;;;;;;;5.33;2.62;;;;;;;10.19;48.41;150215.69;1639769;87;21099;-64
2022/04/13 07:02:31;;;;;;;7.15;2.52;;;;;;;10.29;48.50;150241.66;1610418;87;20919;-69
2022/04/13 07:04:58;;;;;;;5.83;2.42;;;;;;;10.25;48.09;150229.97;1636129;86;21083;-70
2022/04/13 07:07:25;;;;;;;9.18;2.80;;;;;;;10.20;48.65;150217.02;1610346;87;21619;-69
2022/04/13 07:09:54;;;;;;;9.10;2.35;;;;;;;10.30;48.27;150244.25;1639657;86;21494;-70
2022/04/13 07:12:21;;;;;;;7.25;2.30;;;;;;;10.46;47.76;150283.19;1610874;89;21329;-69
2022/04/13 07:14:49;;;;;;;4.12;2.00;;;;;;;10.56;47.62;150309.17;1639832;86;21226;-68
2022/04/13 07:17:16;;;;;;;7.80;2.30;;;;;;;10.69;47.56;150341.61;1610392;87;21246;-68
2022/04/13 07:19:43;;;;;;;4.05;2.25;;;;;;;10.77;47.08;150361.09;1639145;86;21088;-69
2022/04/13 07:22:10;;;;;;;5.20;1.95;;;;;;;10.84;46.81;150379.23;1638361;87;21084;-70
2022/04/13 07:24:37;;;;;;;6.42;2.10;;;;;;;10.88;46.46;150389.63;1609159;87;21116;-69
2022/04/13 07:27:05;;;;;;;10.75;2.37;;;;;;;10.85;46.22;150381.84;1639425;86;21098;-69
2022/04/13 07:29:32;;;;;;;8.53;2.50;;;;;;;10.83;46.38;150376.66;1609876;87;21170;-70
2022/04/13 07:31:59;;;;;;;7.62;2.37;;;;;;;10.83;46.56;150376.66;1613114;87;21107;-69
2022/04/13 07:34:28;;;;;;;4.50;1.90;;;;;;;10.81;45.94;150370.14;1638377;86;21545;-64
2022/04/13 07:36:56;;;;;;;5.03;2.00;;;;;;;10.72;46.14;150348.06;1638493;86;21112;-68
2022/04/13 07:39:23;;;;;;;5.00;1.75;;;;;;;10.77;45.89;150361.09;1609175;87;21749;-70
2022/04/13 07:41:51;;;;;;;4.78;1.72;;;;;;;10.75;45.64;150357.17;1612807;87;21143;-70
2022/04/13 07:44:19;;;;;;;4.85;1.90;;;;;;;10.76;45.36;150358.50;1638663;86;21011;-66
2022/04/13 07:46:50;;;;;;;5.45;1.77;;;;;;;10.77;45.57;150361.09;1608698;87;21073;-64
2022/04/13 07:49:17;;;;;;;2.85;1.65;;;;;;;10.81;45.74;150370.14;1613937;88;21154;-68
2022/04/13 07:51:46;;;;;;;4.00;1.92;;;;;;;10.87;45.49;150387.02;1609311;87;21252;-64
2022/04/13 07:54:13;;;;;;;2.92;1.82;;;;;;;10.93;45.57;150400.00;1613155;87;21087;-64
2022/04/13 07:56:41;;;;;;;5.08;1.37;;;;;;;10.97;44.13;150410.42;1639608;86;21116;-65
2022/04/13 07:59:09;;;;;;;5.20;1.50;;;;;;;10.88;43.46;150389.63;1609965;87;21073;-65
2022/04/13 08:01:36;;;;;;;2.62;1.30;;;;;;;10.81;43.33;150371.47;1639459;86;21063;-64
2022/04/13 08:04:04;;;;;;;4.03;1.65;;;;;;;10.78;43.46;150362.36;1639378;87;21931;-64
2022/04/13 08:06:31;;;;;;;4.45;1.10;;;;;;;10.76;43.81;150358.50;1609877;87;21094;-65
2022/04/13 08:08:58;;;;;;;6.30;1.92;;;;;;;10.78;43.53;150363.69;1646074;85;21079;-65
2022/04/13 08:11:27;;;;;;;5.28;1.90;;;;;;;10.79;43.42;150366.28;1621553;87;21104;-69
2022/04/13 08:13:54;;;;;;;2.67;1.30;;;;;;;10.80;43.81;150368.87;1646765;87;21075;-69
2022/04/13 08:16:22;;;;;;;3.72;1.40;;;;;;;10.82;43.99;150374.06;1626894;86;21263;-70
2022/04/13 08:18:50;;;;;;;5.92;1.32;;;;;;;10.92;43.82;150397.41;1647129;85;21047;-70
2022/04/13 08:21:18;;;;;;;4.85;1.35;;;;;;;11.00;43.01;150418.20;1620719;88;21113;-69
2022/04/13 08:23:45;;;;;;;3.40;1.42;;;;;;;11.04;41.80;150428.58;1645951;86;21087;-69
2022/04/13 08:26:12;;;;;;;7.05;1.32;;;;;;;11.00;41.69;150418.20;1621160;87;21137;-69
2022/04/13 08:28:40;;;;;;;9.58;1.30;;;;;;;10.93;41.69;150400.00;1646880;87;21597;-70
2022/04/13 08:31:09;;;;;;;3.00;0.90;;;;;;;10.92;41.98;150398.72;1621413;87;21129;-69
2022/04/13 08:33:36;;;;;;;4.30;1.22;;;;;;;11.00;41.86;150418.20;1621751;88;21068;-69
2022/04/13 08:36:05;;;;;;;4.50;1.30;;;;;;;10.94;42.13;150403.91;1621549;88;21116;-69
2022/04/13 08:38:32;;;;;;;3.05;1.20;;;;;;;10.89;42.05;150392.22;1647146;85;21087;-69
2022/04/13 08:41:05;;;;;;;4.53;1.40;;;;;;;10.93;41.98;150400.00;1622021;88;21254;-69
2022/04/13 08:43:52;;;;;;;4.22;1.12;;;;;;;10.92;42.27;150397.41;1622901;87;21025;-69
2022/04/13 08:46:25;;;;;;;4.72;1.30;;;;;;;10.91;42.52;150396.13;1645945;85;21131;-69
2022/04/13 08:48:56;;;;;;;6.90;1.20;;;;;;;11.01;42.39;150420.78;1646502;85;21973;-70
2022/04/13 08:51:24;;;;;;;6.90;1.30;;;;;;;11.13;42.32;150450.64;1646730;87;21123;-70
2022/04/13 08:54:08;;;;;;;4.67;1.27;;;;;;;11.05;42.31;150431.16;1622379;87;21244;-71
2022/04/13 08:56:36;;;;;;;3.37;1.10;;;;;;;11.03;42.55;150425.98;1645497;86;21565;-71
2022/04/13 08:59:42;;;;;;;2.40;1.22;;;;;;;11.15;42.60;150457.11;1620917;87;21077;-71
2022/04/13 09:02:32;;;;;;;4.72;1.32;;;;;;;11.20;42.51;150467.53;1644570;85;21612;-69
2022/04/13 09:05:00;;;;;;;3.52;1.17;;;;;;;11.11;42.88;150446.73;1603452;87;21063;-70
2022/04/13 09:07:31;;;;;;;4.83;1.20;;;;;;;11.08;42.93;150438.94;1647327;87;21609;-71
2022/04/13 09:10:02;;;;;;;4.37;1.32;;;;;;;11.03;43.21;150425.98;1647083;85;21615;-70
2022/04/13 09:12:30;;;;;;;5.12;1.35;;;;;;;10.98;43.38;150413.00;1622536;88;21013;-69
2022/04/13 09:14:58;;;;;;;5.78;1.20;;;;;;;10.93;43.43;150400.00;1640638;87;21114;-64
2022/04/13 09:17:29;;;;;;;2.95;1.15;;;;;;;10.87;43.72;150385.75;1620596;88;20978;-64
2022/04/13 09:19:57;;;;;;;1.47;1.10;;;;;;;10.83;43.89;150376.66;1645734;86;21781;-65
2022/04/13 09:22:24;;;;;;;4.30;1.30;;;;;;;10.85;43.98;150380.56;1613765;87;21101;-64
2022/04/13 09:24:51;;;;;;;3.08;1.30;;;;;;;10.86;43.97;150383.16;1645952;85;21102;-65
2022/04/13 09:27:20;;;;;;;3.62;1.30;;;;;;;10.90;44.17;150393.53;1621570;87;21757;-64
2022/04/13 09:29:47;;;;;;;4.20;1.30;;;;;;;10.97;44.18;150410.42;1646256;87;21104;-65
2022/04/13 09:32:15;;;;;;;4.72;1.12;;;;;;;11.02;43.83;150423.37;1620829;87;21318;-65
2022/04/13 09:34:42;;;;;;;3.50;1.20;;;;;;;10.98;44.17;150413.00;1645997;87;21110;-65
2022/04/13 09:37:09;;;;;;;4.37;1.40;;;;;;;11.01;44.24;150420.78;1620797;87;21105;-65
2022/04/13 09:39:36;;;;;;;4.08;1.30;;;;;;;11.06;44.35;150433.77;1621022;87;21154;-65
2022/04/13 09:42:04;;;;;;;3.45;1.30;;;;;;;11.18;44.08;150463.63;1645553;86;21561;-65
2022/04/13 09:44:34;;;;;;;3.95;1.50;;;;;;;11.25;43.86;150481.78;1645547;87;21246;-67
2022/04/13 09:47:08;;;;;;;3.15;1.20;;;;;;;11.11;44.35;150446.73;1645601;85;21102;-65
2022/04/13 09:49:36;;;;;;;4.47;1.10;;;;;;;11.00;44.94;150419.47;1621487;88;24594;-64
2022/04/13 09:52:04;;;;;;;4.83;1.72;;;;;;;10.87;45.39;150387.02;1646404;87;21127;-66
2022/04/13 09:54:32;;;;;;;2.67;1.22;;;;;;;10.77;45.66;150361.09;1621354;87;21185;-65
2022/04/13 09:56:59;;;;;;;2.15;1.05;;;;;;;10.60;45.91;150319.55;1622710;87;21425;-64
2022/04/13 09:59:29;;;;;;;7.58;1.30;;;;;;;10.56;46.32;150309.17;1621181;88;21090;-65
2022/04/13 10:01:57;;;;;;;3.37;1.22;;;;;;;10.49;46.46;150290.97;1646364;86;21091;-63
2022/04/13 10:04:26;;;;;;;3.62;1.40;;;;;;;10.42;46.88;150274.16;1647773;87;21538;-65
2022/04/13 10:06:55;;;;;;;3.83;1.20;;;;;;;10.43;46.94;150276.73;1646206;86;20972;-64
2022/04/13 10:09:24;;;;;;;5.15;1.12;;;;;;;10.51;47.01;150294.89;1612413;87;21054;-64
2022/04/13 10:12:03;;;;;;;4.00;1.22;;;;;;;10.56;46.57;150309.17;1613516;88;21104;-63
2022/04/13 10:14:31;;;;;;;2.45;1.02;;;;;;;10.62;46.44;150322.14;1638643;87;21123;-63
2022/04/13 10:17:12;;;;;;;6.22;1.10;;;;;;;10.62;46.06;150322.14;1638321;86;21016;-63
2022/04/13 10:19:43;;;;;;;2.70;1.10;;;;;;;10.67;46.21;150335.09;1638501;87;21048;-65
2022/04/13 10:22:11;;;;;;;4.47;1.10;;;;;;;10.69;45.90;150341.61;1638866;87;21544;-65
2022/04/13 10:24:40;;;;;;;9.13;1.27;;;;;;;10.71;46.06;150346.80;1609069;87;21035;-64
2022/04/13 10:27:12;;;;;;;3.60;0.93;;;;;;;10.81;46.22;150370.14;1613801;87;21338;-65
2022/04/13 10:29:41;;;;;;;4.72;1.37;;;;;;;10.79;46.34;150366.28;1638890;86;21098;-64
2022/04/13 10:32:14;;;;;;;3.40;1.17;;;;;;;10.77;46.45;150359.77;1609923;89;21074;-63
2022/04/13 10:34:50;;;;;;;4.60;1.20;;;;;;;10.70;45.92;150342.88;1613634;87;21144;-63
2022/04/13 10:37:23;;;;;;;3.20;1.05;;;;;;;10.70;45.98;150342.88;1639243;86;21111;-65
2022/04/13 10:39:54;;;;;;;2.70;1.25;;;;;;;10.72;45.60;150348.06;1609803;87;21158;-64
2022/04/13 10:42:21;;;;;;;3.67;0.93;;;;;;;10.65;45.44;150329.92;1613804;88;21497;-65
2022/04/13 10:45:04;;;;;;;2.65;1.20;;;;;;;10.57;45.58;150310.44;1638998;86;21948;-66
2022/04/13 10:47:36;;;;;;;4.72;1.30;;;;;;;10.51;45.75;150296.20;1610043;87;21273;-64
2022/04/13 10:50:07;;;;;;;3.92;1.02;;;;;;;10.50;45.87;150292.30;1618792;86;21007;-63
2022/04/13 10:52:59;;;;;;;5.08;1.07;;;;;;;10.52;45.64;150298.80;1610546;87;21499;-64
2022/04/13 10:55:27;;;;;;;3.67;1.30;;;;;;;10.54;45.90;150302.66;1611971;87;21114;-65
2022/04/13 10:58:30;;;;;;;2.85;1.12;;;;;;;10.49;46.02;150289.70;1609332;87;21185;-65
2022/04/13 11:01:04;;;;;;;2.50;1.00;;;;;;;10.51;46.09;150296.20;1630766;86;21100;-64
2022/04/13 11:03:37;;;;;;;3.45;1.02;;;;;;;10.55;45.77;150306.58;1641730;85;21415;-64
2022/04/13 11:06:06;;;;;;;4.53;1.40;;;;;;;10.55;45.89;150306.58;1639732;86;21159;-65
2022/04/13 11:08:51;;;;;;;2.45;1.00;;;;;;;10.62;46.18;150322.14;1609067;87;22383;-66
2022/04/13 11:11:22;;;;;;;7.08;2.12;;;;;;;10.73;45.79;150350.72;1632947;87;21513;-65
2022/04/13 11:13:51;;;;;;;3.40;1.05;;;;;;;10.78;45.83;150363.69;1632097;87;21088;-65
2022/04/13 11:16:21;;;;;;;5.33;1.15;;;;;;;10.84;45.70;150377.97;1631645;86;21124;-70
2022/04/13 11:19:11;;;;;;;3.72;1.27;;;;;;;10.86;45.85;150384.44;1631256;86;21592;-68
2022/04/13 11:21:56;;;;;;;2.52;1.20;;;;;;;10.87;45.84;150385.75;1631230;86;21147;-66
2022/04/13 11:24:52;;;;;;;4.70;1.47;;;;;;;10.85;45.71;150380.56;1630938;87;21124;-64
2022/04/13 11:27:19;;;;;;;4.22;1.55;;;;;;;10.87;45.99;150387.02;1632213;87;21194;-65
2022/04/13 11:30:04;;;;;;;2.77;1.30;;;;;;;10.97;45.74;150410.42;1611068;87;21112;-64
2022/04/13 11:32:39;;;;;;;3.02;1.10;;;;;;;10.98;45.72;150413.00;1632093;87;21108;-65
2022/04/13 11:35:25;;;;;;;3.27;1.25;;;;;;;11.02;45.80;150423.37;1612707;88;21693;-65
2022/04/13 11:38:05;;;;;;;7.50;1.52;;;;;;;11.06;45.69;150432.48;1582637;89;21117;-70
2022/04/13 11:40:32;;;;;;;4.00;1.00;;;;;;;11.07;45.68;150436.36;1631002;86;21609;-70